sensor_id;sensor_type;location;lat;lon;timestamp;P1;durP1;ratioP1;P2;durP2;ratioP2
21820;SDS011;11073;48.586;12.066;2022-07-15T00:02:13;4.93;;;2.90;;
21820;SDS011;11073;48.586;12.066;2022-07-15T00:04:43;7.28;;;3.67;;
21820;SDS011;11073;48.586;12.066;2022-07-15T00:07:12;5.00;;;2.95;;
21820;SDS011;11073;48.586;12.066;2022-07-15T00:09:41;4.80;;;2.97;;
21820;SDS011;11073;48.586;12.066;2022-07-15T00:12:27;6.07;;;3.15;;
21820;SDS011;11073;48.586;12.066;2022-07-15T00:14:56;4.45;;;2.80;;
21820;SDS011;11073;48.586;12.066;2022-07-15T00:17:25;4.70;;;3.00;;
21820;SDS011;11073;48.586;12.066;2022-07-15T00:19:55;5.07;;;3.22;;
21820;SDS011;11073;48.586;12.066;2022-07-15T00:22:24;6.68;;;3.30;;
21820;SDS011;11073;48.586;12.066;2022-07-15T00:24:52;5.50;;;3.03;;
21820;SDS011;11073;48.586;12.066;2022-07-15T00:27:21;7.30;;;3.40;;
21820;SDS011;11073;48.586;12.066;2022-07-15T00:29:49;7.43;;;3.22;;
21820;SDS011;11073;48.586;12.066;2022-07-15T00:32:18;5.90;;;3.10;;
21820;SDS011;11073;48.586;12.066;2022-07-15T00:34:47;6.03;;;2.80;;
21820;SDS011;11073;48.586;12.066;2022-07-15T00:37:19;5.43;;;2.90;;
21820;SDS011;11073;48.586;12.066;2022-07-15T00:39:48;4.85;;;2.85;;
21820;SDS011;11073;48.586;12.066;2022-07-15T00:42:17;4.68;;;2.72;;
21820;SDS011;11073;48.586;12.066;2022-07-15T00:44:59;4.35;;;2.70;;
21820;SDS011;11073;48.586;12.066;2022-07-15T00:47:28;7.80;;;2.85;;
21820;SDS011;11073;48.586;12.066;2022-07-15T00:49:57;3.75;;;2.70;;
21820;SDS011;11073;48.586;12.066;2022-07-15T00:52:27;5.80;;;3.00;;
21820;SDS011;11073;48.586;12.066;2022-07-15T00:54:58;5.15;;;2.83;;
21820;SDS011;11073;48.586;12.066;2022-07-15T00:57:28;4.95;;;2.70;;
21820;SDS011;11073;48.586;12.066;2022-07-15T00:59:59;5.25;;;3.00;;
21820;SDS011;11073;48.586;12.066;2022-07-15T01:02:31;4.05;;;2.90;;
21820;SDS011;11073;48.586;12.066;2022-07-15T01:05:00;4.93;;;2.83;;
21820;SDS011;11073;48.586;12.066;2022-07-15T01:07:34;3.85;;;2.65;;
21820;SDS011;11073;48.586;12.066;2022-07-15T01:10:04;10.05;;;2.97;;
21820;SDS011;11073;48.586;12.066;2022-07-15T01:12:34;3.72;;;2.75;;
21820;SDS011;11073;48.586;12.066;2022-07-15T01:15:06;6.63;;;2.70;;
21820;SDS011;11073;48.586;12.066;2022-07-15T01:17:36;5.93;;;3.03;;
21820;SDS011;11073;48.586;12.066;2022-07-15T01:20:09;6.22;;;2.60;;
21820;SDS011;11073;48.586;12.066;2022-07-15T01:22:51;6.78;;;2.80;;
21820;SDS011;11073;48.586;12.066;2022-07-15T01:25:22;5.90;;;2.67;;
21820;SDS011;11073;48.586;12.066;2022-07-15T01:27:52;3.70;;;2.25;;
21820;SDS011;11073;48.586;12.066;2022-07-15T01:30:23;7.05;;;2.88;;
21820;SDS011;11073;48.586;12.066;2022-07-15T01:32:52;3.55;;;2.50;;
21820;SDS011;11073;48.586;12.066;2022-07-15T01:35:21;5.85;;;2.70;;
21820;SDS011;11073;48.586;12.066;2022-07-15T01:37:52;6.90;;;2.40;;
21820;SDS011;11073;48.586;12.066;2022-07-15T01:40:20;4.00;;;2.13;;
21820;SDS011;11073;48.586;12.066;2022-07-15T01:42:50;7.28;;;2.67;;
21820;SDS011;11073;48.586;12.066;2022-07-15T01:45:19;4.47;;;2.40;;
21820;SDS011;11073;48.586;12.066;2022-07-15T01:47:49;3.80;;;2.40;;
21820;SDS011;11073;48.586;12.066;2022-07-15T01:50:45;5.40;;;2.78;;
21820;SDS011;11073;48.586;12.066;2022-07-15T01:53:19;7.35;;;2.72;;
21820;SDS011;11073;48.586;12.066;2022-07-15T01:55:49;7.72;;;2.75;;
21820;SDS011;11073;48.586;12.066;2022-07-15T01:58:18;4.97;;;2.47;;
21820;SDS011;11073;48.586;12.066;2022-07-15T02:00:48;5.40;;;2.40;;
21820;SDS011;11073;48.586;12.066;2022-07-15T02:03:19;5.72;;;2.42;;
21820;SDS011;11073;48.586;12.066;2022-07-15T02:05:48;3.47;;;2.20;;
21820;SDS011;11073;48.586;12.066;2022-07-15T02:08:19;6.10;;;2.40;;
21820;SDS011;11073;48.586;12.066;2022-07-15T02:10:49;3.35;;;2.13;;
21820;SDS011;11073;48.586;12.066;2022-07-15T02:13:19;3.95;;;2.20;;
21820;SDS011;11073;48.586;12.066;2022-07-15T02:15:53;3.92;;;2.38;;
21820;SDS011;11073;48.586;12.066;2022-07-15T02:18:23;3.35;;;2.20;;
21820;SDS011;11073;48.586;12.066;2022-07-15T02:20:51;4.00;;;2.25;;
21820;SDS011;11073;48.586;12.066;2022-07-15T02:23:21;4.93;;;2.40;;
21820;SDS011;11073;48.586;12.066;2022-07-15T02:25:50;4.90;;;2.22;;
21820;SDS011;11073;48.586;12.066;2022-07-15T02:28:24;4.00;;;2.30;;
21820;SDS011;11073;48.586;12.066;2022-07-15T02:30:53;7.43;;;2.60;;
21820;SDS011;11073;48.586;12.066;2022-07-15T02:33:22;5.75;;;2.35;;
21820;SDS011;11073;48.586;12.066;2022-07-15T02:35:50;4.25;;;2.50;;
21820;SDS011;11073;48.586;12.066;2022-07-15T02:38:21;5.30;;;2.53;;
21820;SDS011;11073;48.586;12.066;2022-07-15T02:40:51;4.38;;;2.40;;
21820;SDS011;11073;48.586;12.066;2022-07-15T02:43:20;4.80;;;2.30;;
21820;SDS011;11073;48.586;12.066;2022-07-15T02:45:50;5.97;;;2.28;;
21820;SDS011;11073;48.586;12.066;2022-07-15T02:48:19;4.28;;;2.25;;
21820;SDS011;11073;48.586;12.066;2022-07-15T02:50:50;4.40;;;2.40;;
21820;SDS011;11073;48.586;12.066;2022-07-15T02:53:19;5.80;;;2.28;;
21820;SDS011;11073;48.586;12.066;2022-07-15T02:55:50;4.63;;;2.55;;
21820;SDS011;11073;48.586;12.066;2022-07-15T02:58:18;7.80;;;2.55;;
21820;SDS011;11073;48.586;12.066;2022-07-15T03:00:48;5.07;;;2.65;;
21820;SDS011;11073;48.586;12.066;2022-07-15T03:03:18;3.75;;;2.22;;
21820;SDS011;11073;48.586;12.066;2022-07-15T03:05:47;5.78;;;2.28;;
21820;SDS011;11073;48.586;12.066;2022-07-15T03:08:16;5.32;;;2.65;;
21820;SDS011;11073;48.586;12.066;2022-07-15T03:10:45;7.00;;;2.60;;
21820;SDS011;11073;48.586;12.066;2022-07-15T03:13:15;6.03;;;2.45;;
21820;SDS011;11073;48.586;12.066;2022-07-15T03:15:44;5.75;;;2.80;;
21820;SDS011;11073;48.586;12.066;2022-07-15T03:18:15;3.72;;;2.45;;
21820;SDS011;11073;48.586;12.066;2022-07-15T03:20:44;4.68;;;2.40;;
21820;SDS011;11073;48.586;12.066;2022-07-15T03:23:14;4.00;;;2.47;;
21820;SDS011;11073;48.586;12.066;2022-07-15T03:25:45;5.95;;;2.60;;
21820;SDS011;11073;48.586;12.066;2022-07-15T03:28:17;3.97;;;2.40;;
21820;SDS011;11073;48.586;12.066;2022-07-15T03:30:48;7.70;;;2.80;;
21820;SDS011;11073;48.586;12.066;2022-07-15T03:33:18;5.95;;;2.28;;
21820;SDS011;11073;48.586;12.066;2022-07-15T03:35:48;5.75;;;2.92;;
21820;SDS011;11073;48.586;12.066;2022-07-15T03:38:19;6.07;;;2.30;;
21820;SDS011;11073;48.586;12.066;2022-07-15T03:40:49;5.57;;;2.67;;
21820;SDS011;11073;48.586;12.066;2022-07-15T03:43:19;4.97;;;2.30;;
21820;SDS011;11073;48.586;12.066;2022-07-15T03:45:51;6.28;;;2.80;;
21820;SDS011;11073;48.586;12.066;2022-07-15T03:48:21;5.93;;;2.30;;
21820;SDS011;11073;48.586;12.066;2022-07-15T03:50:50;4.25;;;2.42;;
21820;SDS011;11073;48.586;12.066;2022-07-15T03:53:19;5.25;;;2.53;;
21820;SDS011;11073;48.586;12.066;2022-07-15T03:55:48;8.95;;;2.60;;
21820;SDS011;11073;48.586;12.066;2022-07-15T03:58:17;6.00;;;2.53;;
21820;SDS011;11073;48.586;12.066;2022-07-15T04:00:47;5.68;;;2.50;;
21820;SDS011;11073;48.586;12.066;2022-07-15T04:03:16;3.75;;;2.53;;
21820;SDS011;11073;48.586;12.066;2022-07-15T04:05:45;8.60;;;3.10;;
21820;SDS011;11073;48.586;12.066;2022-07-15T04:08:16;3.38;;;2.10;;
21820;SDS011;11073;48.586;12.066;2022-07-15T04:10:45;4.32;;;2.30;;
21820;SDS011;11073;48.586;12.066;2022-07-15T04:13:15;6.07;;;2.35;;
21820;SDS011;11073;48.586;12.066;2022-07-15T04:15:47;5.82;;;2.10;;
21820;SDS011;11073;48.586;12.066;2022-07-15T04:18:16;5.65;;;2.20;;
21820;SDS011;11073;48.586;12.066;2022-07-15T04:20:46;5.60;;;1.88;;
21820;SDS011;11073;48.586;12.066;2022-07-15T04:23:15;4.15;;;2.50;;
21820;SDS011;11073;48.586;12.066;2022-07-15T04:25:45;4.72;;;2.35;;
21820;SDS011;11073;48.586;12.066;2022-07-15T04:28:15;4.75;;;2.10;;
21820;SDS011;11073;48.586;12.066;2022-07-15T04:30:44;5.47;;;2.05;;
21820;SDS011;11073;48.586;12.066;2022-07-15T04:33:14;7.25;;;2.05;;
21820;SDS011;11073;48.586;12.066;2022-07-15T04:35:43;5.55;;;1.70;;
21820;SDS011;11073;48.586;12.066;2022-07-15T04:38:12;5.05;;;1.85;;
21820;SDS011;11073;48.586;12.066;2022-07-15T04:40:42;2.78;;;1.88;;
21820;SDS011;11073;48.586;12.066;2022-07-15T04:43:12;4.82;;;2.03;;
21820;SDS011;11073;48.586;12.066;2022-07-15T04:45:44;4.72;;;2.00;;
21820;SDS011;11073;48.586;12.066;2022-07-15T04:48:18;5.45;;;2.00;;
21820;SDS011;11073;48.586;12.066;2022-07-15T04:51:08;4.82;;;2.00;;
21820;SDS011;11073;48.586;12.066;2022-07-15T04:53:37;5.05;;;1.98;;
21820;SDS011;11073;48.586;12.066;2022-07-15T04:56:06;2.70;;;1.70;;
21820;SDS011;11073;48.586;12.066;2022-07-15T04:58:36;4.00;;;1.98;;
21820;SDS011;11073;48.586;12.066;2022-07-15T05:01:07;4.45;;;2.00;;
21820;SDS011;11073;48.586;12.066;2022-07-15T05:03:38;3.80;;;1.88;;
21820;SDS011;11073;48.586;12.066;2022-07-15T05:06:07;3.28;;;1.90;;
21820;SDS011;11073;48.586;12.066;2022-07-15T05:08:36;6.57;;;1.80;;
21820;SDS011;11073;48.586;12.066;2022-07-15T05:11:04;5.03;;;2.03;;
21820;SDS011;11073;48.586;12.066;2022-07-15T05:13:35;1.98;;;1.50;;
21820;SDS011;11073;48.586;12.066;2022-07-15T05:16:05;4.78;;;2.10;;
21820;SDS011;11073;48.586;12.066;2022-07-15T05:18:35;6.07;;;1.98;;
21820;SDS011;11073;48.586;12.066;2022-07-15T05:21:06;4.38;;;1.80;;
21820;SDS011;11073;48.586;12.066;2022-07-15T05:23:40;5.80;;;1.80;;
21820;SDS011;11073;48.586;12.066;2022-07-15T05:26:31;4.68;;;1.75;;
21820;SDS011;11073;48.586;12.066;2022-07-15T05:29:04;6.15;;;1.77;;
21820;SDS011;11073;48.586;12.066;2022-07-15T05:31:34;4.90;;;1.52;;
21820;SDS011;11073;48.586;12.066;2022-07-15T05:34:03;5.53;;;1.70;;
21820;SDS011;11073;48.586;12.066;2022-07-15T05:36:35;4.38;;;1.83;;
21820;SDS011;11073;48.586;12.066;2022-07-15T05:39:05;5.95;;;2.00;;
21820;SDS011;11073;48.586;12.066;2022-07-15T05:41:35;4.40;;;1.73;;
21820;SDS011;11073;48.586;12.066;2022-07-15T05:44:04;7.30;;;1.63;;
21820;SDS011;11073;48.586;12.066;2022-07-15T05:46:40;3.55;;;1.55;;
21820;SDS011;11073;48.586;12.066;2022-07-15T05:49:10;4.13;;;2.33;;
21820;SDS011;11073;48.586;12.066;2022-07-15T05:51:40;5.68;;;1.80;;
21820;SDS011;11073;48.586;12.066;2022-07-15T05:54:09;4.63;;;1.70;;
21820;SDS011;11073;48.586;12.066;2022-07-15T05:56:40;4.45;;;1.65;;
21820;SDS011;11073;48.586;12.066;2022-07-15T05:59:14;2.65;;;1.38;;
21820;SDS011;11073;48.586;12.066;2022-07-15T06:01:43;4.18;;;1.58;;
21820;SDS011;11073;48.586;12.066;2022-07-15T06:04:11;4.78;;;1.88;;
21820;SDS011;11073;48.586;12.066;2022-07-15T06:06:45;3.92;;;1.33;;
21820;SDS011;11073;48.586;12.066;2022-07-15T06:09:14;3.72;;;1.40;;
21820;SDS011;11073;48.586;12.066;2022-07-15T06:11:43;5.90;;;1.52;;
21820;SDS011;11073;48.586;12.066;2022-07-15T06:14:12;6.80;;;1.60;;
21820;SDS011;11073;48.586;12.066;2022-07-15T06:16:41;4.65;;;1.58;;
21820;SDS011;11073;48.586;12.066;2022-07-15T06:19:10;6.28;;;1.35;;
21820;SDS011;11073;48.586;12.066;2022-07-15T06:21:39;2.67;;;1.08;;
21820;SDS011;11073;48.586;12.066;2022-07-15T06:24:09;5.38;;;1.88;;
21820;SDS011;11073;48.586;12.066;2022-07-15T06:26:40;5.32;;;1.30;;
21820;SDS011;11073;48.586;12.066;2022-07-15T06:29:08;4.95;;;1.50;;
21820;SDS011;11073;48.586;12.066;2022-07-15T06:31:37;8.18;;;1.40;;
21820;SDS011;11073;48.586;12.066;2022-07-15T06:34:06;4.60;;;1.50;;
21820;SDS011;11073;48.586;12.066;2022-07-15T06:36:34;5.68;;;1.45;;
21820;SDS011;11073;48.586;12.066;2022-07-15T06:39:04;4.22;;;1.30;;
21820;SDS011;11073;48.586;12.066;2022-07-15T06:41:35;5.55;;;1.80;;
21820;SDS011;11073;48.586;12.066;2022-07-15T06:44:04;5.53;;;1.45;;
21820;SDS011;11073;48.586;12.066;2022-07-15T06:46:42;7.40;;;1.45;;
21820;SDS011;11073;48.586;12.066;2022-07-15T06:49:11;4.32;;;1.27;;
21820;SDS011;11073;48.586;12.066;2022-07-15T06:51:40;4.07;;;1.48;;
21820;SDS011;11073;48.586;12.066;2022-07-15T06:54:09;2.90;;;1.30;;
21820;SDS011;11073;48.586;12.066;2022-07-15T06:56:40;4.45;;;1.08;;
21820;SDS011;11073;48.586;12.066;2022-07-15T06:59:09;3.95;;;1.30;;
21820;SDS011;11073;48.586;12.066;2022-07-15T07:01:37;5.90;;;1.30;;
21820;SDS011;11073;48.586;12.066;2022-07-15T07:04:06;3.55;;;1.33;;
21820;SDS011;11073;48.586;12.066;2022-07-15T07:06:35;2.88;;;1.00;;
21820;SDS011;11073;48.586;12.066;2022-07-15T07:09:03;5.00;;;1.38;;
21820;SDS011;11073;48.586;12.066;2022-07-15T07:11:32;4.88;;;1.15;;
21820;SDS011;11073;48.586;12.066;2022-07-15T07:14:02;3.78;;;1.42;;
21820;SDS011;11073;48.586;12.066;2022-07-15T07:16:31;5.70;;;1.25;;
21820;SDS011;11073;48.586;12.066;2022-07-15T07:19:00;5.07;;;1.08;;
21820;SDS011;11073;48.586;12.066;2022-07-15T07:21:29;3.10;;;1.10;;
21820;SDS011;11073;48.586;12.066;2022-07-15T07:23:58;5.40;;;1.30;;
21820;SDS011;11073;48.586;12.066;2022-07-15T07:26:27;5.15;;;1.17;;
21820;SDS011;11073;48.586;12.066;2022-07-15T07:29:16;5.82;;;1.45;;
21820;SDS011;11073;48.586;12.066;2022-07-15T07:31:50;3.22;;;1.10;;
21820;SDS011;11073;48.586;12.066;2022-07-15T07:34:18;3.53;;;1.35;;
21820;SDS011;11073;48.586;12.066;2022-07-15T07:36:48;3.08;;;1.13;;
21820;SDS011;11073;48.586;12.066;2022-07-15T07:39:16;2.40;;;0.90;;
21820;SDS011;11073;48.586;12.066;2022-07-15T07:41:45;7.38;;;1.58;;
21820;SDS011;11073;48.586;12.066;2022-07-15T07:44:16;4.20;;;1.20;;
21820;SDS011;11073;48.586;12.066;2022-07-15T07:46:45;3.78;;;1.48;;
21820;SDS011;11073;48.586;12.066;2022-07-15T07:49:14;2.15;;;1.17;;
21820;SDS011;11073;48.586;12.066;2022-07-15T07:52:02;1.95;;;1.00;;
21820;SDS011;11073;48.586;12.066;2022-07-15T07:54:31;3.75;;;1.23;;
21820;SDS011;11073;48.586;12.066;2022-07-15T07:56:59;4.13;;;1.20;;
21820;SDS011;11073;48.586;12.066;2022-07-15T07:59:30;4.70;;;1.23;;
21820;SDS011;11073;48.586;12.066;2022-07-15T08:01:59;3.65;;;1.30;;
21820;SDS011;11073;48.586;12.066;2022-07-15T08:04:27;3.88;;;1.35;;
21820;SDS011;11073;48.586;12.066;2022-07-15T08:06:56;2.92;;;0.85;;
21820;SDS011;11073;48.586;12.066;2022-07-15T08:09:25;3.63;;;1.42;;
21820;SDS011;11073;48.586;12.066;2022-07-15T08:11:54;3.20;;;1.17;;
21820;SDS011;11073;48.586;12.066;2022-07-15T08:14:23;1.92;;;1.08;;
21820;SDS011;11073;48.586;12.066;2022-07-15T08:16:54;3.88;;;1.55;;
21820;SDS011;11073;48.586;12.066;2022-07-15T08:19:22;2.85;;;1.33;;
21820;SDS011;11073;48.586;12.066;2022-07-15T08:21:52;4.15;;;1.50;;
21820;SDS011;11073;48.586;12.066;2022-07-15T08:24:20;3.55;;;1.85;;
21820;SDS011;11073;48.586;12.066;2022-07-15T08:26:50;2.92;;;1.40;;
21820;SDS011;11073;48.586;12.066;2022-07-15T08:29:18;3.15;;;1.17;;
21820;SDS011;11073;48.586;12.066;2022-07-15T08:31:47;1.83;;;1.20;;
21820;SDS011;11073;48.586;12.066;2022-07-15T08:34:18;2.03;;;1.20;;
21820;SDS011;11073;48.586;12.066;2022-07-15T08:36:46;4.93;;;1.42;;
21820;SDS011;11073;48.586;12.066;2022-07-15T08:39:15;1.73;;;1.20;;
21820;SDS011;11073;48.586;12.066;2022-07-15T08:41:44;3.63;;;1.27;;
21820;SDS011;11073;48.586;12.066;2022-07-15T08:44:13;2.88;;;1.60;;
21820;SDS011;11073;48.586;12.066;2022-07-15T08:46:43;3.20;;;1.50;;
21820;SDS011;11073;48.586;12.066;2022-07-15T08:49:15;1.80;;;1.40;;
21820;SDS011;11073;48.586;12.066;2022-07-15T08:51:47;2.03;;;1.20;;
21820;SDS011;11073;48.586;12.066;2022-07-15T08:54:21;2.25;;;1.55;;
21820;SDS011;11073;48.586;12.066;2022-07-15T08:56:50;4.95;;;1.42;;
21820;SDS011;11073;48.586;12.066;2022-07-15T08:59:18;2.55;;;1.70;;
21820;SDS011;11073;48.586;12.066;2022-07-15T09:01:47;2.65;;;1.48;;
21820;SDS011;11073;48.586;12.066;2022-07-15T09:04:17;1.73;;;1.40;;
21820;SDS011;11073;48.586;12.066;2022-07-15T09:06:46;2.17;;;1.40;;
21820;SDS011;11073;48.586;12.066;2022-07-15T09:09:22;3.00;;;1.55;;
21820;SDS011;11073;48.586;12.066;2022-07-15T09:11:53;2.97;;;1.48;;
21820;SDS011;11073;48.586;12.066;2022-07-15T09:14:36;3.55;;;1.80;;
21820;SDS011;11073;48.586;12.066;2022-07-15T09:17:22;3.60;;;1.70;;
21820;SDS011;11073;48.586;12.066;2022-07-15T09:19:56;3.97;;;1.38;;
21820;SDS011;11073;48.586;12.066;2022-07-15T09:22:31;3.33;;;1.45;;
21820;SDS011;11073;48.586;12.066;2022-07-15T09:25:05;3.80;;;1.65;;
21820;SDS011;11073;48.586;12.066;2022-07-15T09:27:36;2.88;;;1.60;;
21820;SDS011;11073;48.586;12.066;2022-07-15T09:30:12;3.97;;;1.42;;
21820;SDS011;11073;48.586;12.066;2022-07-15T09:33:09;4.70;;;1.48;;
21820;SDS011;11073;48.586;12.066;2022-07-15T09:36:01;2.42;;;1.52;;
21820;SDS011;11073;48.586;12.066;2022-07-15T09:38:37;6.82;;;1.58;;
21820;SDS011;11073;48.586;12.066;2022-07-15T09:41:11;2.92;;;1.40;;
21820;SDS011;11073;48.586;12.066;2022-07-15T09:43:55;3.25;;;1.40;;
21820;SDS011;11073;48.586;12.066;2022-07-15T09:46:26;4.07;;;1.65;;
21820;SDS011;11073;48.586;12.066;2022-07-15T09:48:56;3.25;;;1.73;;
21820;SDS011;11073;48.586;12.066;2022-07-15T09:51:25;2.45;;;1.55;;
21820;SDS011;11073;48.586;12.066;2022-07-15T09:53:55;3.58;;;1.55;;
21820;SDS011;11073;48.586;12.066;2022-07-15T09:56:28;4.97;;;1.67;;
21820;SDS011;11073;48.586;12.066;2022-07-15T09:58:57;2.33;;;1.60;;
21820;SDS011;11073;48.586;12.066;2022-07-15T10:01:26;6.07;;;1.70;;
21820;SDS011;11073;48.586;12.066;2022-07-15T10:03:55;3.25;;;1.48;;
21820;SDS011;11073;48.586;12.066;2022-07-15T10:06:25;2.40;;;1.60;;
21820;SDS011;11073;48.586;12.066;2022-07-15T10:08:56;2.00;;;1.60;;
21820;SDS011;11073;48.586;12.066;2022-07-15T10:11:26;3.90;;;1.70;;
21820;SDS011;11073;48.586;12.066;2022-07-15T10:17:00;5.38;;;1.67;;
21820;SDS011;11073;48.586;12.066;2022-07-15T10:19:45;2.38;;;1.40;;
21820;SDS011;11073;48.586;12.066;2022-07-15T10:22:30;2.83;;;1.85;;
21820;SDS011;11073;48.586;12.066;2022-07-15T10:25:17;4.63;;;1.67;;
21820;SDS011;11073;48.586;12.066;2022-07-15T10:28:02;5.68;;;1.75;;
21820;SDS011;11073;48.586;12.066;2022-07-15T10:30:34;3.15;;;1.60;;
21820;SDS011;11073;48.586;12.066;2022-07-15T10:33:08;4.15;;;1.92;;
21820;SDS011;11073;48.586;12.066;2022-07-15T10:35:45;4.68;;;1.50;;
21820;SDS011;11073;48.586;12.066;2022-07-15T10:38:22;3.45;;;1.88;;
21820;SDS011;11073;48.586;12.066;2022-07-15T10:41:02;2.97;;;1.55;;
21820;SDS011;11073;48.586;12.066;2022-07-15T10:43:40;5.15;;;1.90;;
21820;SDS011;11073;48.586;12.066;2022-07-15T10:46:24;5.97;;;1.92;;
21820;SDS011;11073;48.586;12.066;2022-07-15T10:52:11;2.13;;;1.50;;
21820;SDS011;11073;48.586;12.066;2022-07-15T10:54:42;3.00;;;1.67;;
21820;SDS011;11073;48.586;12.066;2022-07-15T10:57:14;5.03;;;1.75;;
21820;SDS011;11073;48.586;12.066;2022-07-15T10:59:47;5.72;;;1.50;;
21820;SDS011;11073;48.586;12.066;2022-07-15T11:02:18;2.55;;;1.40;;
21820;SDS011;11073;48.586;12.066;2022-07-15T11:04:49;3.30;;;1.70;;
21820;SDS011;11073;48.586;12.066;2022-07-15T11:07:29;4.30;;;1.65;;
21820;SDS011;11073;48.586;12.066;2022-07-15T11:10:16;2.33;;;1.38;;
21820;SDS011;11073;48.586;12.066;2022-07-15T11:12:55;3.95;;;1.70;;
21820;SDS011;11073;48.586;12.066;2022-07-15T11:15:26;4.25;;;1.60;;
21820;SDS011;11073;48.586;12.066;2022-07-15T11:17:56;2.78;;;1.60;;
21820;SDS011;11073;48.586;12.066;2022-07-15T11:20:35;2.60;;;1.52;;
21820;SDS011;11073;48.586;12.066;2022-07-15T11:23:06;3.15;;;1.52;;
21820;SDS011;11073;48.586;12.066;2022-07-15T11:25:36;3.85;;;1.80;;
21820;SDS011;11073;48.586;12.066;2022-07-15T11:28:09;3.45;;;1.70;;
21820;SDS011;11073;48.586;12.066;2022-07-15T11:30:40;2.67;;;1.50;;
21820;SDS011;11073;48.586;12.066;2022-07-15T11:33:10;3.42;;;1.63;;
21820;SDS011;11073;48.586;12.066;2022-07-15T11:35:45;11.05;;;2.22;;
21820;SDS011;11073;48.586;12.066;2022-07-15T11:38:17;2.95;;;1.70;;
21820;SDS011;11073;48.586;12.066;2022-07-15T11:40:51;2.60;;;1.55;;
21820;SDS011;11073;48.586;12.066;2022-07-15T11:43:40;5.10;;;1.67;;
21820;SDS011;11073;48.586;12.066;2022-07-15T11:46:27;2.65;;;1.60;;
21820;SDS011;11073;48.586;12.066;2022-07-15T11:48:58;3.22;;;1.50;;
21820;SDS011;11073;48.586;12.066;2022-07-15T11:51:27;3.22;;;1.80;;
21820;SDS011;11073;48.586;12.066;2022-07-15T11:53:57;3.72;;;1.80;;
21820;SDS011;11073;48.586;12.066;2022-07-15T11:56:26;2.53;;;1.60;;
21820;SDS011;11073;48.586;12.066;2022-07-15T11:58:56;2.70;;;1.67;;
21820;SDS011;11073;48.586;12.066;2022-07-15T12:01:26;3.20;;;1.58;;
21820;SDS011;11073;48.586;12.066;2022-07-15T12:03:56;5.22;;;1.55;;
21820;SDS011;11073;48.586;12.066;2022-07-15T12:06:27;3.85;;;1.88;;
21820;SDS011;11073;48.586;12.066;2022-07-15T12:08:58;4.03;;;1.60;;
21820;SDS011;11073;48.586;12.066;2022-07-15T12:11:30;3.65;;;1.80;;
21820;SDS011;11073;48.586;12.066;2022-07-15T12:14:02;2.90;;;1.75;;
21820;SDS011;11073;48.586;12.066;2022-07-15T12:16:33;2.65;;;1.65;;
21820;SDS011;11073;48.586;12.066;2022-07-15T12:19:04;3.55;;;1.98;;
21820;SDS011;11073;48.586;12.066;2022-07-15T12:21:35;3.60;;;1.80;;
21820;SDS011;11073;48.586;12.066;2022-07-15T12:24:06;3.47;;;1.60;;
21820;SDS011;11073;48.586;12.066;2022-07-15T12:26:37;4.28;;;1.80;;
21820;SDS011;11073;48.586;12.066;2022-07-15T12:29:09;2.83;;;1.83;;
21820;SDS011;11073;48.586;12.066;2022-07-15T12:31:40;2.88;;;1.77;;
21820;SDS011;11073;48.586;12.066;2022-07-15T12:34:11;3.00;;;1.80;;
21820;SDS011;11073;48.586;12.066;2022-07-15T12:36:40;3.03;;;1.77;;
21820;SDS011;11073;48.586;12.066;2022-07-15T12:39:13;3.80;;;1.85;;
21820;SDS011;11073;48.586;12.066;2022-07-15T12:41:57;3.45;;;2.00;;
21820;SDS011;11073;48.586;12.066;2022-07-15T12:44:31;4.10;;;1.42;;
21820;SDS011;11073;48.586;12.066;2022-07-15T12:47:03;4.63;;;1.77;;
21820;SDS011;11073;48.586;12.066;2022-07-15T12:52:30;4.40;;;1.75;;
21820;SDS011;11073;48.586;12.066;2022-07-15T12:55:11;4.38;;;1.95;;
21820;SDS011;11073;48.586;12.066;2022-07-15T12:57:42;1.85;;;1.70;;
21820;SDS011;11073;48.586;12.066;2022-07-15T13:00:13;2.97;;;1.90;;
21820;SDS011;11073;48.586;12.066;2022-07-15T13:03:04;3.30;;;1.80;;
21820;SDS011;11073;48.586;12.066;2022-07-15T13:05:36;4.18;;;1.70;;
21820;SDS011;11073;48.586;12.066;2022-07-15T13:08:06;2.83;;;1.50;;
21820;SDS011;11073;48.586;12.066;2022-07-15T13:10:36;4.32;;;1.70;;
21820;SDS011;11073;48.586;12.066;2022-07-15T13:13:06;3.50;;;1.88;;
21820;SDS011;11073;48.586;12.066;2022-07-15T13:15:37;5.53;;;1.95;;
21820;SDS011;11073;48.586;12.066;2022-07-15T13:18:06;4.20;;;2.22;;
21820;SDS011;11073;48.586;12.066;2022-07-15T13:20:35;7.88;;;1.75;;
21820;SDS011;11073;48.586;12.066;2022-07-15T13:23:04;2.72;;;1.92;;
21820;SDS011;11073;48.586;12.066;2022-07-15T13:25:33;4.40;;;1.90;;
21820;SDS011;11073;48.586;12.066;2022-07-15T13:28:04;3.67;;;1.98;;
21820;SDS011;11073;48.586;12.066;2022-07-15T13:30:33;4.38;;;1.88;;
21820;SDS011;11073;48.586;12.066;2022-07-15T13:33:04;3.03;;;1.77;;
21820;SDS011;11073;48.586;12.066;2022-07-15T13:35:34;4.82;;;1.70;;
21820;SDS011;11073;48.586;12.066;2022-07-15T13:38:02;2.28;;;1.63;;
21820;SDS011;11073;48.586;12.066;2022-07-15T13:40:31;4.40;;;2.20;;
21820;SDS011;11073;48.586;12.066;2022-07-15T13:43:00;3.65;;;1.83;;
21820;SDS011;11073;48.586;12.066;2022-07-15T13:45:30;7.25;;;1.85;;
21820;SDS011;11073;48.586;12.066;2022-07-15T13:47:59;2.53;;;1.80;;
21820;SDS011;11073;48.586;12.066;2022-07-15T13:50:29;62.72;;;5.43;;
21820;SDS011;11073;48.586;12.066;2022-07-15T13:53:15;3.35;;;2.10;;
21820;SDS011;11073;48.586;12.066;2022-07-15T13:55:44;3.85;;;2.13;;
21820;SDS011;11073;48.586;12.066;2022-07-15T13:58:12;3.13;;;1.88;;
21820;SDS011;11073;48.586;12.066;2022-07-15T14:00:41;3.90;;;1.73;;
21820;SDS011;11073;48.586;12.066;2022-07-15T14:03:09;4.25;;;1.70;;
21820;SDS011;11073;48.586;12.066;2022-07-15T14:05:40;5.25;;;2.00;;
21820;SDS011;11073;48.586;12.066;2022-07-15T14:08:09;2.13;;;1.63;;
21820;SDS011;11073;48.586;12.066;2022-07-15T14:10:37;4.35;;;2.15;;
21820;SDS011;11073;48.586;12.066;2022-07-15T14:13:06;3.63;;;1.73;;
21820;SDS011;11073;48.586;12.066;2022-07-15T14:15:35;4.95;;;1.70;;
21820;SDS011;11073;48.586;12.066;2022-07-15T14:18:05;2.38;;;2.03;;
21820;SDS011;11073;48.586;12.066;2022-07-15T14:20:34;5.70;;;1.77;;
21820;SDS011;11073;48.586;12.066;2022-07-15T14:23:05;3.10;;;1.77;;
21820;SDS011;11073;48.586;12.066;2022-07-15T14:25:34;4.45;;;2.13;;
21820;SDS011;11073;48.586;12.066;2022-07-15T14:28:02;5.00;;;1.88;;
21820;SDS011;11073;48.586;12.066;2022-07-15T14:30:31;6.07;;;2.15;;
21820;SDS011;11073;48.586;12.066;2022-07-15T14:33:01;4.95;;;1.95;;
21820;SDS011;11073;48.586;12.066;2022-07-15T14:35:29;6.05;;;1.77;;
21820;SDS011;11073;48.586;12.066;2022-07-15T14:37:59;3.60;;;1.88;;
21820;SDS011;11073;48.586;12.066;2022-07-15T14:40:29;3.13;;;1.77;;
21820;SDS011;11073;48.586;12.066;2022-07-15T14:42:57;2.58;;;1.80;;
21820;SDS011;11073;48.586;12.066;2022-07-15T14:45:26;4.07;;;1.90;;
21820;SDS011;11073;48.586;12.066;2022-07-15T14:47:55;7.13;;;2.45;;
21820;SDS011;11073;48.586;12.066;2022-07-15T14:50:24;5.45;;;1.80;;
21820;SDS011;11073;48.586;12.066;2022-07-15T14:52:52;2.72;;;1.60;;
21820;SDS011;11073;48.586;12.066;2022-07-15T14:55:21;4.85;;;1.60;;
21820;SDS011;11073;48.586;12.066;2022-07-15T14:57:58;4.63;;;1.90;;
21820;SDS011;11073;48.586;12.066;2022-07-15T15:00:26;4.07;;;1.70;;
21820;SDS011;11073;48.586;12.066;2022-07-15T15:02:55;7.57;;;1.90;;
21820;SDS011;11073;48.586;12.066;2022-07-15T15:05:24;5.38;;;2.03;;
21820;SDS011;11073;48.586;12.066;2022-07-15T15:07:53;5.53;;;1.80;;